createdAt,value
2023-03-18T00:00:17.585Z,2.70
2023-03-18T00:02:45.407Z,2.30
2023-03-18T00:05:13.107Z,2.65
2023-03-18T00:07:40.411Z,2.42
2023-03-18T00:10:10.074Z,2.60
2023-03-18T00:12:38.814Z,3.08
2023-03-18T00:15:10.451Z,2.65
2023-03-18T00:17:37.870Z,2.58
2023-03-18T00:20:07.003Z,2.40
2023-03-18T00:22:35.899Z,2.90
2023-03-18T00:25:03.247Z,3.22
2023-03-18T00:27:30.352Z,2.42
2023-03-18T00:29:57.657Z,3.05
2023-03-18T00:32:26.629Z,2.30
2023-03-18T00:37:30.395Z,2.38
2023-03-18T00:40:17.130Z,2.20
2023-03-18T00:42:47.833Z,2.60
2023-03-18T00:45:17.088Z,2.72
2023-03-18T00:47:44.325Z,2.53
2023-03-18T00:50:11.822Z,2.42
2023-03-18T00:52:39.533Z,2.33
2023-03-18T00:55:07.021Z,2.10
2023-03-18T00:57:34.677Z,2.40
2023-03-18T01:00:02.627Z,2.45
2023-03-18T01:02:29.657Z,2.60
2023-03-18T01:04:57.143Z,2.45
2023-03-18T01:07:24.069Z,2.60
2023-03-18T01:09:50.774Z,2.20
2023-03-18T01:12:18.205Z,2.65
2023-03-18T01:14:44.920Z,2.30
2023-03-18T01:17:11.790Z,2.63
2023-03-18T01:19:38.916Z,2.72
2023-03-18T01:22:05.666Z,2.50
2023-03-18T01:24:37.986Z,2.63
2023-03-18T01:27:06.207Z,2.47
2023-03-18T01:29:34.058Z,2.53
2023-03-18T01:32:02.991Z,2.88
2023-03-18T01:34:30.890Z,2.42
2023-03-18T01:36:57.954Z,2.38
2023-03-18T01:39:27.709Z,2.60
2023-03-18T01:41:54.509Z,2.63
2023-03-18T01:44:29.159Z,2.58
2023-03-18T01:46:58.488Z,2.40
2023-03-18T01:49:35.073Z,3.08
2023-03-18T01:52:32.040Z,2.53
2023-03-18T01:55:02.804Z,2.70
2023-03-18T01:57:31.345Z,2.60
2023-03-18T01:59:59.839Z,2.30
2023-03-18T02:02:30.748Z,2.20
2023-03-18T02:07:29.703Z,2.20
2023-03-18T02:10:04.433Z,1.90
2023-03-18T02:12:34.529Z,2.80
2023-03-18T02:15:03.817Z,2.40
2023-03-18T02:17:34.357Z,2.35
2023-03-18T02:20:16.458Z,2.33
2023-03-18T02:22:54.099Z,2.58
2023-03-18T02:26:02.870Z,3.20
2023-03-18T02:28:32.029Z,2.35
2023-03-18T02:31:04.970Z,2.67
2023-03-18T02:33:35.274Z,2.40
2023-03-18T02:36:11.043Z,2.80
2023-03-18T02:38:42.988Z,2.33
2023-03-18T02:41:25.426Z,2.17
2023-03-18T02:43:52.468Z,2.97
2023-03-18T02:46:38.513Z,2.63
2023-03-18T02:49:07.731Z,2.33
2023-03-18T02:51:36.929Z,2.88
2023-03-18T02:54:10.343Z,3.00
2023-03-18T02:56:38.664Z,2.30
2023-03-18T02:59:05.636Z,3.05
2023-03-18T03:01:33.837Z,2.20
2023-03-18T03:04:01.825Z,2.65
2023-03-18T03:06:29.107Z,2.60
2023-03-18T03:08:57.239Z,2.45
2023-03-18T03:11:25.073Z,2.70
2023-03-18T03:13:55.005Z,2.65
2023-03-18T03:16:21.826Z,2.70
2023-03-18T03:18:48.570Z,2.50
2023-03-18T03:21:15.437Z,2.25
2023-03-18T03:23:43.892Z,2.72
2023-03-18T03:26:10.764Z,2.67
2023-03-18T03:28:37.696Z,2.97
2023-03-18T03:31:04.599Z,2.40
2023-03-18T03:33:31.369Z,2.38
2023-03-18T03:35:58.272Z,2.53
2023-03-18T03:38:26.192Z,2.30
2023-03-18T03:40:55.074Z,2.78
2023-03-18T03:43:22.568Z,3.40
2023-03-18T03:45:49.654Z,2.80
2023-03-18T03:48:16.457Z,2.70
2023-03-18T03:50:43.244Z,2.55
2023-03-18T03:53:10.508Z,2.33
2023-03-18T03:55:37.845Z,2.15
2023-03-18T03:58:04.868Z,2.30
2023-03-18T04:00:33.249Z,2.42
2023-03-18T04:03:00.327Z,3.00
2023-03-18T04:05:28.023Z,2.67
2023-03-18T04:08:00.099Z,2.70
2023-03-18T04:10:36.627Z,3.00
2023-03-18T04:13:05.480Z,2.83
2023-03-18T04:15:32.828Z,2.50
2023-03-18T04:18:07.135Z,2.75
2023-03-18T04:20:36.644Z,2.25
2023-03-18T04:23:07.809Z,2.50
2023-03-18T04:25:35.313Z,2.70
2023-03-18T04:28:02.772Z,2.50
2023-03-18T04:30:30.779Z,2.50
2023-03-18T04:33:05.695Z,2.60
2023-03-18T04:35:32.793Z,2.15
2023-03-18T04:38:00.419Z,2.50
2023-03-18T04:40:27.746Z,2.40
2023-03-18T04:42:54.460Z,2.25
2023-03-18T04:45:25.031Z,2.38
2023-03-18T04:47:54.383Z,2.92
2023-03-18T04:50:21.688Z,2.47
2023-03-18T04:52:48.761Z,2.60
2023-03-18T04:55:20.637Z,2.30
2023-03-18T04:57:48.495Z,2.70
2023-03-18T05:00:22.846Z,2.80
2023-03-18T05:02:54.958Z,2.40
2023-03-18T05:05:24.118Z,2.35
2023-03-18T05:07:52.092Z,2.42
2023-03-18T05:10:20.559Z,2.63
2023-03-18T05:12:48.619Z,3.20
2023-03-18T05:15:18.561Z,2.25
2023-03-18T05:17:50.970Z,2.63
2023-03-18T05:20:18.588Z,2.72
2023-03-18T05:22:46.818Z,2.45
2023-03-18T05:25:20.460Z,2.60
2023-03-18T05:27:47.816Z,2.40
2023-03-18T05:30:27.188Z,2.55
2023-03-18T05:32:54.928Z,2.60
2023-03-18T05:35:34.502Z,2.60
2023-03-18T05:38:01.771Z,2.45
2023-03-18T05:40:28.859Z,2.72
2023-03-18T05:43:04.619Z,2.63
2023-03-18T05:45:44.495Z,2.85
2023-03-18T05:48:14.449Z,2.70
2023-03-18T05:50:49.346Z,2.50
2023-03-18T05:53:19.790Z,2.95
2023-03-18T05:55:49.574Z,2.45
2023-03-18T05:58:18.042Z,2.22
2023-03-18T06:00:46.288Z,3.00
2023-03-18T06:03:13.011Z,2.92
2023-03-18T06:05:39.934Z,3.03
2023-03-18T06:08:08.020Z,2.45
2023-03-18T06:10:36.706Z,2.70
2023-03-18T06:13:03.405Z,2.88
2023-03-18T06:15:30.532Z,2.35
2023-03-18T06:17:57.653Z,2.88
2023-03-18T06:20:24.991Z,2.35
2023-03-18T06:22:53.339Z,2.58
2023-03-18T06:25:23.414Z,2.65
2023-03-18T06:27:51.170Z,2.90
2023-03-18T06:30:21.512Z,2.40
2023-03-18T06:32:49.010Z,2.33
2023-03-18T06:35:16.594Z,2.35
2023-03-18T06:37:43.814Z,2.78
2023-03-18T06:40:12.298Z,3.15
2023-03-18T06:42:39.774Z,2.65
2023-03-18T06:45:10.838Z,3.08
2023-03-18T06:47:49.954Z,2.80
2023-03-18T06:50:17.504Z,2.25
2023-03-18T06:52:44.779Z,2.70
2023-03-18T06:55:15.117Z,2.45
2023-03-18T06:57:45.668Z,2.65
2023-03-18T07:00:16.268Z,2.40
2023-03-18T07:02:43.404Z,2.40
2023-03-18T07:05:12.978Z,2.55
2023-03-18T07:07:42.030Z,2.97
2023-03-18T07:10:20.902Z,2.40
2023-03-18T07:12:48.563Z,2.35
2023-03-18T07:15:17.587Z,2.33
2023-03-18T07:17:44.780Z,2.10
2023-03-18T07:20:12.730Z,2.83
2023-03-18T07:22:40.393Z,2.50
2023-03-18T07:25:07.621Z,2.28
2023-03-18T07:27:36.288Z,2.47
2023-03-18T07:30:04.232Z,2.58
2023-03-18T07:32:31.654Z,2.33
2023-03-18T07:34:59.193Z,2.38
2023-03-18T07:37:26.136Z,2.30
2023-03-18T07:39:53.179Z,2.28
2023-03-18T07:42:20.102Z,2.53
2023-03-18T07:44:46.837Z,2.35
2023-03-18T07:47:15.099Z,2.80
2023-03-18T07:49:41.718Z,2.30
2023-03-18T07:52:09.305Z,2.15
2023-03-18T07:54:36.009Z,2.60
2023-03-18T07:57:03.892Z,2.63
2023-03-18T07:59:30.802Z,2.35
2023-03-18T08:01:57.508Z,2.42
2023-03-18T08:04:25.110Z,2.50
2023-03-18T08:06:51.953Z,2.80
2023-03-18T08:09:18.596Z,2.65
2023-03-18T08:11:45.251Z,2.53
2023-03-18T08:14:11.944Z,2.72
2023-03-18T08:16:38.614Z,2.25
2023-03-18T08:19:05.762Z,2.63
2023-03-18T08:21:32.547Z,2.70
2023-03-18T08:23:59.250Z,2.97
2023-03-18T08:26:25.892Z,2.15
2023-03-18T08:28:52.581Z,2.50
2023-03-18T08:31:19.798Z,2.13
2023-03-18T08:33:47.620Z,2.67
2023-03-18T08:36:14.420Z,2.80
2023-03-18T08:38:41.097Z,2.20
2023-03-18T08:41:07.673Z,2.53
2023-03-18T08:43:36.388Z,2.42
2023-03-18T08:46:04.888Z,2.20
2023-03-18T08:48:32.169Z,2.78
2023-03-18T08:50:59.146Z,2.65
2023-03-18T08:53:25.837Z,2.45
2023-03-18T08:55:52.809Z,2.60
2023-03-18T08:58:19.474Z,2.50
2023-03-18T09:00:46.196Z,2.40
2023-03-18T09:03:13.614Z,2.25
2023-03-18T09:05:40.353Z,2.38
2023-03-18T09:08:07.109Z,2.42
2023-03-18T09:10:34.188Z,2.88
2023-03-18T09:13:00.950Z,2.83
2023-03-18T09:15:27.681Z,2.60
2023-03-18T09:18:10.456Z,2.47
2023-03-18T09:20:38.940Z,2.00
2023-03-18T09:23:06.306Z,2.33
2023-03-18T09:25:34.297Z,2.20
2023-03-18T09:28:01.896Z,2.53
2023-03-18T09:30:28.788Z,2.30
2023-03-18T09:32:56.558Z,2.58
2023-03-18T09:35:24.229Z,2.45
2023-03-18T09:37:50.980Z,2.63
2023-03-18T09:40:30.697Z,2.58
2023-03-18T09:43:13.166Z,2.80
2023-03-18T09:45:49.640Z,2.33
2023-03-18T09:48:44.343Z,2.50
2023-03-18T09:51:28.544Z,2.28
2023-03-18T09:54:17.208Z,2.33
2023-03-18T09:56:45.495Z,2.35
2023-03-18T09:59:29.558Z,2.33
2023-03-18T10:01:58.001Z,2.40
2023-03-18T10:04:45.236Z,2.17
2023-03-18T10:07:17.562Z,2.60
2023-03-18T10:09:52.327Z,2.42
2023-03-18T10:12:27.233Z,2.67
2023-03-18T10:15:06.862Z,2.60
2023-03-18T10:17:46.977Z,2.60
2023-03-18T10:20:29.854Z,2.50
2023-03-18T10:23:06.240Z,2.05
2023-03-18T10:25:32.969Z,3.00
2023-03-18T10:28:33.594Z,2.92
2023-03-18T10:31:09.532Z,2.83
2023-03-18T10:33:54.783Z,2.67
2023-03-18T10:36:31.898Z,2.65
2023-03-18T10:39:01.139Z,3.15
2023-03-18T10:41:35.860Z,2.55
2023-03-18T10:44:26.328Z,2.90
2023-03-18T10:47:00.722Z,3.20
2023-03-18T10:49:36.991Z,2.67
2023-03-18T10:52:28.494Z,2.58
2023-03-18T10:54:55.149Z,2.50
2023-03-18T10:57:22.506Z,2.92
2023-03-18T10:59:51.427Z,2.63
2023-03-18T11:02:32.851Z,2.63
2023-03-18T11:05:26.080Z,2.92
2023-03-18T11:08:01.659Z,2.50
2023-03-18T11:10:34.748Z,2.40
2023-03-18T11:13:06.400Z,3.03
2023-03-18T11:15:50.152Z,2.47
2023-03-18T11:18:20.911Z,2.17
2023-03-18T11:23:54.207Z,2.67
2023-03-18T11:26:26.359Z,2.40
2023-03-18T11:29:05.399Z,2.38
2023-03-18T11:31:32.457Z,2.08
2023-03-18T11:33:59.326Z,2.35
2023-03-18T11:36:28.260Z,2.10
2023-03-18T11:39:03.873Z,2.20
2023-03-18T11:41:30.782Z,1.92
2023-03-18T11:44:01.738Z,2.20
2023-03-18T11:46:37.554Z,2.70
2023-03-18T11:49:04.618Z,2.35
2023-03-18T11:51:39.561Z,2.20
2023-03-18T11:54:45.049Z,2.58
2023-03-18T11:57:27.182Z,2.28
2023-03-18T11:59:59.796Z,2.50
2023-03-18T12:02:49.447Z,2.33
2023-03-18T12:05:34.655Z,2.00
2023-03-18T12:08:12.801Z,2.58
2023-03-18T12:10:55.992Z,2.35
2023-03-18T12:13:39.613Z,2.30
2023-03-18T12:16:09.853Z,2.25
2023-03-18T12:18:36.628Z,2.40
2023-03-18T12:21:30.664Z,2.75
2023-03-18T12:24:02.077Z,2.60
2023-03-18T12:26:45.938Z,3.10
2023-03-18T12:29:37.399Z,2.75
2023-03-18T12:32:09.869Z,2.90
2023-03-18T12:34:45.518Z,2.92
2023-03-18T12:37:22.651Z,2.83
2023-03-18T12:40:01.318Z,2.90
2023-03-18T12:43:18.424Z,2.83
2023-03-18T12:45:48.812Z,3.13
2023-03-18T12:48:36.860Z,2.90
2023-03-18T12:51:12.213Z,2.97
2023-03-18T12:53:46.454Z,3.10
2023-03-18T12:56:18.645Z,2.63
2023-03-18T12:58:54.022Z,3.05
2023-03-18T13:01:20.611Z,2.60
2023-03-18T13:03:54.990Z,3.33
2023-03-18T13:06:35.426Z,3.15
2023-03-18T13:09:08.172Z,2.95
2023-03-18T13:11:45.984Z,3.28
2023-03-18T13:14:23.521Z,3.13
2023-03-18T13:16:51.858Z,2.97
2023-03-18T13:19:18.546Z,3.30
2023-03-18T13:21:51.682Z,2.78
2023-03-18T13:24:21.863Z,2.67
2023-03-18T13:27:24.081Z,3.50
2023-03-18T13:30:08.198Z,3.38
2023-03-18T13:32:56.462Z,2.90
2023-03-18T13:35:45.217Z,2.90
2023-03-18T13:38:15.824Z,3.10
2023-03-18T13:41:09.998Z,2.70
2023-03-18T13:43:41.413Z,3.22
2023-03-18T13:46:24.738Z,2.90
2023-03-18T13:48:56.848Z,3.42
2023-03-18T13:51:23.495Z,3.40
2023-03-18T13:53:53.665Z,3.30
2023-03-18T13:56:34.258Z,4.00
2023-03-18T13:59:07.913Z,3.22
2023-03-18T14:01:51.189Z,3.33
2023-03-18T14:04:31.068Z,3.25
2023-03-18T14:07:14.917Z,2.90
2023-03-18T14:09:51.967Z,3.50
2023-03-18T14:12:39.415Z,3.33
2023-03-18T14:15:09.517Z,3.30
2023-03-18T14:17:55.590Z,3.00
2023-03-18T14:20:26.270Z,2.85
2023-03-18T14:22:56.970Z,3.08
2023-03-18T14:25:40.956Z,3.50
2023-03-18T14:28:07.505Z,3.63
2023-03-18T14:30:34.874Z,3.20
2023-03-18T14:33:05.674Z,3.40
2023-03-18T14:35:49.249Z,3.00
2023-03-18T14:38:20.788Z,3.42
2023-03-18T14:40:51.626Z,3.28
2023-03-18T14:44:02.443Z,3.50
2023-03-18T14:46:34.499Z,4.25
2023-03-18T14:49:01.581Z,3.55
2023-03-18T14:51:31.519Z,3.85
2023-03-18T14:54:08.064Z,3.88
2023-03-18T14:56:42.036Z,3.13
2023-03-18T14:59:15.143Z,3.10
2023-03-18T15:01:48.095Z,3.33
2023-03-18T15:04:22.391Z,3.45
2023-03-18T15:06:49.315Z,3.65
2023-03-18T15:09:28.387Z,3.13
2023-03-18T15:11:55.517Z,3.35
2023-03-18T15:14:30.815Z,3.40
2023-03-18T15:17:02.129Z,3.35
2023-03-18T15:19:29.485Z,3.47
2023-03-18T15:22:03.389Z,3.22
2023-03-18T15:24:30.281Z,3.08
2023-03-18T15:27:05.840Z,3.70
2023-03-18T15:29:54.745Z,3.35
2023-03-18T15:32:28.709Z,3.42
2023-03-18T15:34:58.909Z,3.53
2023-03-18T15:37:40.359Z,3.97
2023-03-18T15:40:22.524Z,5.00
2023-03-18T15:42:49.810Z,4.90
2023-03-18T15:45:25.369Z,4.30
2023-03-18T15:47:52.105Z,3.92
2023-03-18T15:50:18.978Z,3.70
2023-03-18T15:52:47.588Z,4.30
2023-03-18T15:55:47.331Z,3.22
2023-03-18T15:58:23.869Z,3.72
2023-03-18T16:00:53.424Z,4.10
2023-03-18T16:03:23.492Z,3.92
2023-03-18T16:05:51.580Z,4.10
2023-03-18T16:08:21.059Z,3.65
2023-03-18T16:10:49.967Z,3.67
2023-03-18T16:13:21.448Z,4.53
2023-03-18T16:15:48.429Z,4.00
2023-03-18T16:18:15.974Z,3.90
2023-03-18T16:20:45.555Z,3.83
2023-03-18T16:23:15.214Z,4.07
2023-03-18T16:25:47.930Z,3.95
2023-03-18T16:28:21.285Z,4.45
2023-03-18T16:30:49.654Z,4.20
2023-03-18T16:33:18.037Z,4.65
2023-03-18T16:35:46.459Z,4.30
2023-03-18T16:38:16.367Z,4.55
2023-03-18T16:40:44.260Z,4.43
2023-03-18T16:43:22.440Z,4.80
2023-03-18T16:45:50.673Z,4.30
2023-03-18T16:48:20.554Z,4.63
2023-03-18T16:50:49.955Z,4.67
2023-03-18T16:53:29.571Z,5.75
2023-03-18T16:56:04.207Z,4.57
2023-03-18T16:58:35.165Z,5.07
2023-03-18T17:01:06.200Z,5.45
2023-03-18T17:03:34.191Z,5.40
2023-03-18T17:06:01.958Z,5.20
2023-03-18T17:08:28.660Z,5.57
2023-03-18T17:10:58.354Z,6.15
2023-03-18T17:13:28.410Z,5.87
2023-03-18T17:15:55.563Z,6.57
2023-03-18T17:18:23.854Z,6.65
2023-03-18T17:20:51.321Z,6.63
2023-03-18T17:23:24.498Z,7.10
2023-03-18T17:25:57.534Z,6.82
2023-03-18T17:28:32.958Z,7.22
2023-03-18T17:31:00.014Z,7.25
2023-03-18T17:33:32.087Z,7.00
2023-03-18T17:36:00.459Z,7.88
2023-03-18T17:38:27.751Z,8.07
2023-03-18T17:40:55.417Z,7.43
2023-03-18T17:43:37.761Z,7.13
2023-03-18T17:46:06.579Z,8.52
2023-03-18T17:48:37.862Z,6.90
2023-03-18T17:51:15.824Z,7.22
2023-03-18T17:53:45.423Z,6.25
2023-03-18T17:56:14.786Z,6.40
2023-03-18T17:58:47.101Z,6.50
2023-03-18T18:01:17.972Z,7.07
2023-03-18T18:03:45.040Z,7.10
2023-03-18T18:06:17.777Z,6.03
2023-03-18T18:08:44.533Z,7.38
2023-03-18T18:11:14.710Z,6.40
2023-03-18T18:13:41.383Z,6.57
2023-03-18T18:16:09.476Z,6.28
2023-03-18T18:18:36.788Z,6.65
2023-03-18T18:21:05.662Z,6.03
2023-03-18T18:23:35.603Z,6.03
2023-03-18T18:26:07.887Z,6.30
2023-03-18T18:28:39.275Z,6.22
2023-03-18T18:31:09.179Z,6.25
2023-03-18T18:33:37.526Z,5.95
2023-03-18T18:36:05.896Z,7.45
2023-03-18T18:38:33.342Z,7.05
2023-03-18T18:41:01.544Z,6.40
2023-03-18T18:43:28.798Z,7.30
2023-03-18T18:45:57.697Z,7.30
2023-03-18T18:48:32.614Z,6.90
2023-03-18T18:51:00.836Z,6.88
2023-03-18T18:53:38.811Z,6.45
2023-03-18T18:56:15.946Z,5.75
2023-03-18T18:58:42.892Z,5.88
2023-03-18T19:01:12.727Z,6.13
2023-03-18T19:03:41.443Z,5.68
2023-03-18T19:06:23.901Z,5.85
2023-03-18T19:08:50.526Z,6.00
2023-03-18T19:11:17.090Z,6.32
2023-03-18T19:13:44.925Z,6.05
2023-03-18T19:16:21.104Z,5.88
2023-03-18T19:18:48.474Z,6.05
2023-03-18T19:21:14.988Z,5.82
2023-03-18T19:23:41.921Z,6.35
2023-03-18T19:26:13.261Z,5.63
2023-03-18T19:28:55.304Z,6.15
2023-03-18T19:31:26.743Z,6.25
2023-03-18T19:33:53.973Z,6.75
2023-03-18T19:36:52.937Z,6.53
2023-03-18T19:39:21.916Z,6.38
2023-03-18T19:41:49.124Z,6.70
2023-03-18T19:44:17.885Z,5.97
2023-03-18T19:46:46.002Z,5.88
2023-03-18T19:49:23.329Z,6.40
2023-03-18T19:51:51.539Z,6.50
2023-03-18T19:54:33.272Z,7.07
2023-03-18T19:57:03.611Z,5.88
2023-03-18T19:59:38.332Z,6.68
2023-03-18T20:02:25.911Z,7.57
2023-03-18T20:04:55.444Z,6.82
2023-03-18T20:07:24.563Z,6.72
2023-03-18T20:09:51.422Z,7.63
2023-03-18T20:12:36.881Z,7.22
2023-03-18T20:15:05.986Z,7.70
2023-03-18T20:17:41.324Z,6.97
2023-03-18T20:20:13.272Z,7.40
2023-03-18T20:22:43.528Z,7.43
2023-03-18T20:25:39.041Z,7.03
2023-03-18T20:28:07.140Z,8.07
2023-03-18T20:30:36.340Z,6.97
2023-03-18T20:33:06.606Z,7.10
2023-03-18T20:35:37.369Z,7.25
2023-03-18T20:40:34.071Z,6.65
2023-03-18T20:43:01.595Z,7.13
2023-03-18T20:45:28.574Z,6.85
2023-03-18T20:47:56.645Z,6.68
2023-03-18T20:50:29.796Z,7.72
2023-03-18T20:52:57.552Z,7.60
2023-03-18T20:55:27.286Z,7.47
2023-03-18T20:57:54.379Z,7.53
2023-03-18T21:00:24.493Z,7.43
2023-03-18T21:02:53.587Z,7.25
2023-03-18T21:05:21.029Z,6.97
2023-03-18T21:07:48.065Z,7.00
2023-03-18T21:10:17.567Z,6.32
2023-03-18T21:12:45.482Z,7.10
2023-03-18T21:15:20.322Z,7.63
2023-03-18T21:17:47.684Z,7.03
2023-03-18T21:20:22.379Z,6.63
2023-03-18T21:22:50.981Z,7.68
2023-03-18T21:25:20.066Z,6.80
2023-03-18T21:27:47.264Z,7.22
2023-03-18T21:30:15.397Z,7.30
2023-03-18T21:32:42.580Z,7.05
2023-03-18T21:35:24.365Z,6.78
2023-03-18T21:37:52.060Z,6.43
2023-03-18T21:40:23.248Z,6.82
2023-03-18T21:42:51.419Z,6.88
2023-03-18T21:45:21.279Z,7.30
2023-03-18T21:47:47.944Z,7.28
2023-03-18T21:50:26.087Z,7.10
2023-03-18T21:52:54.210Z,7.18
2023-03-18T21:55:21.727Z,7.25
2023-03-18T21:57:49.375Z,7.53
2023-03-18T22:00:19.919Z,7.47
2023-03-18T22:02:48.036Z,6.35
2023-03-18T22:05:18.623Z,6.97
2023-03-18T22:07:45.936Z,6.85
2023-03-18T22:10:16.466Z,7.22
2023-03-18T22:12:43.679Z,7.22
2023-03-18T22:15:32.685Z,7.20
2023-03-18T22:17:59.509Z,7.50
2023-03-18T22:20:26.512Z,7.05
2023-03-18T22:22:53.156Z,7.45
2023-03-18T22:25:32.688Z,6.32
2023-03-18T22:28:00.207Z,6.90
2023-03-18T22:30:29.324Z,7.20
2023-03-18T22:32:57.273Z,7.57
2023-03-18T22:35:26.383Z,6.93
2023-03-18T22:37:53.310Z,6.93
2023-03-18T22:40:23.016Z,7.00
2023-03-18T22:42:55.126Z,7.35
2023-03-18T22:45:30.767Z,7.45
2023-03-18T22:48:01.133Z,6.63
2023-03-18T22:50:32.383Z,6.97
2023-03-18T22:53:19.114Z,6.65
2023-03-18T22:55:45.849Z,7.55
2023-03-18T22:58:24.315Z,6.43
2023-03-18T23:00:51.729Z,7.50
2023-03-18T23:03:24.145Z,6.93
2023-03-18T23:05:52.825Z,6.82
2023-03-18T23:08:20.933Z,6.80
2023-03-18T23:10:49.309Z,7.43
2023-03-18T23:13:25.974Z,7.03
2023-03-18T23:15:53.020Z,6.88
2023-03-18T23:18:20.281Z,7.07
2023-03-18T23:20:49.432Z,6.80
2023-03-18T23:23:17.049Z,6.75
2023-03-18T23:25:45.529Z,7.10
2023-03-18T23:28:12.981Z,6.93
2023-03-18T23:30:41.893Z,6.93
2023-03-18T23:33:09.506Z,6.78
2023-03-18T23:35:37.548Z,6.32
2023-03-18T23:38:05.713Z,6.28
2023-03-18T23:40:32.906Z,7.30
2023-03-18T23:42:59.648Z,6.70
2023-03-18T23:45:27.983Z,6.65
2023-03-18T23:47:55.912Z,6.38
2023-03-18T23:50:23.269Z,6.80
2023-03-18T23:52:50.370Z,7.10
2023-03-18T23:55:33.088Z,6.80
2023-03-18T23:58:00.485Z,6.82
